Nearby METAR Reports

 

KSJC - San Jose, California, USA
Distance from station: NE 9mi, 14km
Updated: Fri, 06-Dec-2019 4:53pm PST
Mostly cloudy
Mostly cloudy
 Wind from SSE
Wind: SSE 15 mph , 24 km/h
Temperature: 63°F , 17°C
Dew Point: 48°F , 9°C
Humidity: 59%
Barometer: 29.94 inHg , 1013.9 hPa
Clouds: Mostly cloudy
Visibility: 10 miles , 16 km
Cloud details: Few Clouds 500 ft
Partly cloudy 3200 ft
Mostly cloudy 5000 ft
2019/12/07 00:53 KSJC 070053Z 16013KT 10SM FEW005 SCT032 BKN050 17/09 A2994 RMK AO2 SLP138 T01720089
KNUQ - Moffett Nas/Mtn, California, USA
Distance from station: N 9mi, 14km
Updated: Thu, 21-Nov-2019 8:56am PST
NOT Current

 
Barometer: 29.86 inHg , 1011.2 hPa
2019/11/21 16:56 KNUQ 211656Z AUTO A2986 RMK AO2 SLP116 PWINO $
 
KPAO - Palo Alto, California, USA
Distance from station: NNW 14mi, 23km
Updated: Fri, 06-Dec-2019 4:47pm PST
Mostly cloudy
Mostly cloudy
 Wind from SSE
Wind: SSE 18 mph , 30 km/h, Gust: 28 mph , 44 km/h
Temperature: 61°F , 16°C
Dew Point: 50°F , 10°C
Humidity: 68%
Barometer: 29.95 inHg , 1014.2 hPa
Clouds: Mostly cloudy
Visibility: 10 miles , 16 km
Cloud details: Mostly cloudy 4000 ft
2019/12/07 00:47 KPAO 070047Z 16016G24KT 10SM BKN040 16/10 A2995
KRHV - San Jose/Reid, California, USA
Distance from station: ENE 12mi, 19km
Updated: Fri, 06-Dec-2019 4:47pm PST
Mostly cloudy
Mostly cloudy
 Wind from S
Wind: S 9 mph , 15 km/h, Gust: 17 mph , 28 km/h
Temperature: 63°F , 17°C
Dew Point: 48°F , 9°C
Humidity: 59%
Barometer: 29.96 inHg , 1014.6 hPa
Clouds: Mostly cloudy
Visibility: 10 miles , 16 km
Cloud details: Partly cloudy 3500 ft
Mostly cloudy 5000 ft
2019/12/07 00:47 KRHV 070047Z 18008G15KT 10SM SCT035 BKN050 17/09 A2996
 
KOAK - Oakland, California, USA
Distance from station: NNW 31mi, 50km
Updated: Fri, 06-Dec-2019 4:53pm PST
Overcast
Overcast
 Wind from SSE
Wind: SSE 20 mph , 31 km/h, Gust: 28 mph , 44 km/h
Temperature: 63°F , 17°C
Dew Point: 50°F , 10°C
Humidity: 64%
Barometer: 29.95 inHg , 1014.2 hPa
Clouds: Overcast
Visibility: 10 miles , 16 km
Cloud details: Partly cloudy 4600 ft
Mostly cloudy 5500 ft
Overcast 7000 ft
2019/12/07 00:53 KOAK 070053Z 16017G24KT 10SM SCT046 BKN055 OVC070 17/10 A2995 RMK AO2 SLP141 T01670100
KSQL - San Carlos Airpo, California, USA
Distance from station: NW 21mi, 34km
Updated: Fri, 06-Dec-2019 4:47pm PST
Overcast
Overcast
 Wind from SE
Wind: SE 14 mph , 22 km/h, Gust: 22 mph , 35 km/h
Temperature: 63°F , 17°C
Dew Point: 50°F , 10°C
Humidity: 64%
Barometer: 29.96 inHg , 1014.6 hPa
Clouds: Overcast
Visibility: 10 miles , 16 km
Cloud details: Mostly cloudy 3300 ft
Overcast 4200 ft
2019/12/07 00:47 KSQL 070047Z 14012G19KT 10SM BKN033 OVC042 17/10 A2996
 
KSFO - San Francisco, California, USA
Distance from station: NW 30mi, 49km
Updated: Fri, 06-Dec-2019 4:56pm PST
Mostly cloudy
Mostly cloudy
 Wind from SE
Wind: SE 17 mph , 28 km/h
Temperature: 63°F , 17°C
Dew Point: 50°F , 10°C
Humidity: 64%
Barometer: 29.93 inHg , 1013.5 hPa
Clouds: Mostly cloudy
Visibility: 10 miles , 16 km
Cloud details: Few Clouds 2300 ft
Mostly cloudy 3400 ft
Mostly cloudy 5500 ft
2019/12/07 00:56 KSFO 070056Z 14015KT 10SM FEW023 BKN034 BKN055 17/10 A2993 RMK AO2 PK WND 12026/0035 SLP135 T01670100
KE16 - San Martin, California, USA
Distance from station: ESE 27mi, 43km
Updated: Thu, 14-Nov-2019 1:35am PST
NOT Current
Overcast
Overcast
 Wind from SE
Wind: SE 7 mph , 11 km/h
Temperature: 54°F , 12°C
Dew Point: 50°F , 10°C
Humidity: 88%
Barometer: 30.05 inHg , 1017.6 hPa
Clouds: Overcast
Visibility: 10 miles , 16 km
Cloud details: Overcast 1400 ft
2019/11/14 09:35 KE16 140935Z AUTO 13006KT 10SM OVC014 12/10 A3005 RMK AO2
 
KWVI - Watsonville, California, USA
Distance from station: SSE 27mi, 44km
Updated: Fri, 06-Dec-2019 4:53pm PST
Overcast
Overcast
 Wind from SSW
Wind: SSW 6 mph , 9 km/h
Temperature: 61°F , 16°C
Dew Point: 52°F , 11°C
Humidity: 72%
Barometer: 29.98 inHg , 1015.2 hPa
Clouds: Overcast
Visibility: 10 miles , 16 km
Cloud details: Overcast 6000 ft
2019/12/07 00:53 KWVI 070053Z AUTO 20005KT 10SM OVC060 16/11 A2998 RMK AO2 SLP151 T01610106
KHAF - Half Moon Bay, California, USA
Distance from station: WNW 31mi, 50km
Updated: Fri, 06-Dec-2019 5:20pm PST
Light rain, Overcast
Light rain, Overcast
 Wind from S
Wind: S 30 mph , 48 km/h, Gust: 37 mph , 59 km/h
Temperature: 57°F , 14°C
Dew Point: 54°F , 12°C
Humidity: 88%
Barometer: 29.94 inHg , 1013.9 hPa
Summary: Light rain
Clouds: Overcast
Visibility: 4 miles , 6 km
Cloud details: Mostly cloudy 3700 ft
Mostly cloudy 4300 ft
Overcast 5000 ft
2019/12/07 01:20 KHAF 070120Z AUTO 17026G32KT 4SM -RA BKN037 BKN043 OVC050 14/12 A2994 RMK AO2
 
KHWD - Hayward, California, USA
Distance from station: N 28mi, 44km
Updated: Fri, 06-Dec-2019 4:54pm PST
Overcast
Overcast
 Wind from S
Wind: S 15 mph , 24 km/h, Gust: 23 mph , 37 km/h
Temperature: 63°F , 17°C
Dew Point: 48°F , 9°C
Humidity: 59%
Barometer: 29.95 inHg , 1014.2 hPa
Clouds: Overcast
Visibility: 10 miles , 16 km
Cloud details: Mostly cloudy 5000 ft
Overcast 7000 ft
2019/12/07 00:54 KHWD 070054Z 18013G20KT 10SM BKN050 OVC070 17/09 A2995 RMK AO2 SLP150 T01670094
KLVK - Livermore, California, USA
Distance from station: NNE 31mi, 51km
Updated: Fri, 06-Dec-2019 4:53pm PST
Mostly cloudy
Mostly cloudy
 Wind from calm
Wind: Calm
Temperature: 61°F , 16°C
Dew Point: 50°F , 10°C
Humidity: 68%
Barometer: 29.95 inHg , 1014.2 hPa
Clouds: Mostly cloudy
Visibility: 10 miles , 16 km
Cloud details: Mostly cloudy 5500 ft
2019/12/07 00:53 KLVK 070053Z 00000KT 10SM BKN055 16/10 A2995 RMK AO2 SLP142 T01560100